Time;durP1;ratioP1;P1;durP2;ratioP2;P2;SDS_P1;SDS_P2;PMS_P1;PMS_P2;Temp;Humidity;BMP_temperature;BMP_pressure;BME280_temperature;BME280_humidity;BME280_pressure;Samples;Min_cycle;Max_cycle;Signal;HPM_P1;HPM_P2
2022/09/24 00:06:49;;;;;;;3.03;2.20;;;;;;;14.31;42.96;101507.19;5064305;28;20402;-69
2022/09/24 00:09:18;;;;;;;2.60;2.30;;;;;;;14.30;42.75;101511.72;5046552;28;20452;-68
2022/09/24 00:14:05;;;;;;;2.65;2.30;;;;;;;14.28;42.70;101505.72;5090106;27;20409;-69
2022/09/24 00:16:33;;;;;;;3.00;2.30;;;;;;;14.23;43.13;101505.41;5080467;28;20438;-69
2022/09/24 00:19:00;;;;;;;2.53;2.20;;;;;;;14.24;42.99;101515.09;5079908;28;20447;-69
2022/09/24 00:21:28;;;;;;;2.40;2.20;;;;;;;14.23;43.16;101501.94;5080992;28;20392;-70
2022/09/24 00:27:54;;;;;;;2.95;2.30;;;;;;;14.24;43.47;101504.44;5072663;28;20465;-69
2022/09/24 00:30:19;;;;;;;3.50;2.15;;;;;;;14.28;43.08;101510.25;5082127;28;20450;-68
2022/09/24 00:32:45;;;;;;;2.70;2.30;;;;;;;14.30;43.31;101500.22;5076690;28;20374;-68
2022/09/24 00:35:10;;;;;;;2.30;2.10;;;;;;;14.31;42.92;101501.88;5070242;28;20391;-68
2022/09/24 00:37:36;;;;;;;3.20;2.20;;;;;;;14.32;43.11;101504.38;5066837;28;20395;-69
2022/09/24 00:40:01;;;;;;;2.33;2.00;;;;;;;14.28;42.92;101503.06;5080477;28;20802;-70
2022/09/24 00:42:28;;;;;;;2.37;2.17;;;;;;;14.25;43.23;101494.56;5086563;28;20802;-68
2022/09/24 00:44:54;;;;;;;2.72;2.10;;;;;;;14.27;43.26;101508.56;5086561;28;20417;-68
2022/09/24 00:47:24;;;;;;;3.33;2.30;;;;;;;14.26;42.87;101499.75;5072218;28;20406;-68
2022/09/24 00:49:50;;;;;;;2.30;2.10;;;;;;;14.22;43.04;101498.41;5066402;28;20390;-67
2022/09/24 00:52:27;;;;;;;2.42;2.20;;;;;;;14.15;43.40;101490.28;5088058;27;20411;-67
2022/09/24 00:54:54;;;;;;;2.40;2.20;;;;;;;14.12;43.42;101492.47;5055797;28;20402;-68
2022/09/24 00:57:19;;;;;;;2.28;2.08;;;;;;;14.13;43.43;101497.66;5063785;28;20479;-69
2022/09/24 00:59:45;;;;;;;2.17;1.98;;;;;;;14.11;43.65;101490.81;5065145;28;20842;-68
2022/09/24 01:02:11;;;;;;;3.13;2.40;;;;;;;14.15;43.41;101484.97;5066706;28;20384;-69
2022/09/24 01:04:37;;;;;;;2.88;2.03;;;;;;;14.12;43.74;101484.47;5066334;28;20943;-69
2022/09/24 01:07:41;;;;;;;2.33;2.10;;;;;;;14.13;43.30;101480.78;5094650;27;20413;-68
2022/09/24 01:10:07;;;;;;;3.03;2.10;;;;;;;14.11;43.51;101480.97;5087070;28;20390;-68
2022/09/24 01:12:51;;;;;;;2.50;2.17;;;;;;;14.14;43.67;101483.28;5087193;28;20377;-69
2022/09/24 01:15:21;;;;;;;2.75;2.30;;;;;;;14.13;43.53;101481.66;5060125;28;20382;-69
2022/09/24 01:17:57;;;;;;;3.13;2.20;;;;;;;14.06;43.38;101478.03;5086883;28;20418;-68
2022/09/24 01:20:55;;;;;;;2.38;2.10;;;;;;;14.03;43.56;101473.03;5086816;28;20389;-69
2022/09/24 01:26:34;;;;;;;2.75;2.20;;;;;;;14.01;43.72;101482.19;5069041;27;20410;-69
2022/09/24 01:29:25;;;;;;;2.88;2.45;;;;;;;14.01;44.12;101471.53;5032604;28;20811;-69
2022/09/24 01:32:05;;;;;;;2.50;2.30;;;;;;;13.96;43.87;101472.88;5046786;28;20386;-69
2022/09/24 01:36:31;;;;;;;2.30;2.10;;;;;;;13.92;44.33;101474.25;5046193;28;20474;-68
2022/09/24 01:38:58;;;;;;;2.78;2.22;;;;;;;13.94;44.01;101469.56;5026468;28;20417;-67
2022/09/24 01:43:33;;;;;;;2.50;2.30;;;;;;;13.93;43.99;101475.88;5094019;27;20426;-68
2022/09/24 01:46:03;;;;;;;4.50;2.30;;;;;;;13.90;44.13;101470.06;5086537;28;20409;-68
2022/09/24 01:48:29;;;;;;;2.43;2.23;;;;;;;13.88;44.34;101474.75;5086746;28;20382;-69
2022/09/24 01:53:07;;;;;;;2.53;2.33;;;;;;;13.81;44.44;101471.97;5094043;27;20429;-69
2022/09/24 01:58:09;;;;;;;2.70;2.50;;;;;;;13.77;44.25;101470.63;5073038;27;20810;-68
2022/09/24 02:00:38;;;;;;;2.63;2.42;;;;;;;13.74;44.57;101476.31;5087009;28;20447;-69
2022/09/24 02:04:16;;;;;;;3.38;2.40;;;;;;;13.79;44.39;101479.28;5080154;27;20410;-69
2022/09/24 02:06:55;;;;;;;2.95;2.35;;;;;;;13.85;44.35;101485.78;5066609;28;20403;-69
2022/09/24 02:09:35;;;;;;;3.33;2.10;;;;;;;13.82;44.59;101481.59;5066778;28;20394;-68
2022/09/24 02:12:16;;;;;;;2.65;2.40;;;;;;;13.74;44.49;101482.47;5066702;28;20483;-69
2022/09/24 02:14:53;;;;;;;2.88;2.40;;;;;;;13.75;44.46;101484.13;5065516;28;20395;-69
2022/09/24 02:17:22;;;;;;;2.63;2.42;;;;;;;13.74;44.66;101486.97;5066196;28;20893;-69
2022/09/24 02:19:57;;;;;;;2.60;2.40;;;;;;;13.72;44.74;101484.47;5068555;28;20420;-69
2022/09/24 02:22:24;;;;;;;3.50;2.30;;;;;;;13.73;44.36;101488.78;5060660;28;20434;-69
2022/09/24 02:24:54;;;;;;;2.67;2.47;;;;;;;13.73;44.29;101485.31;5058197;28;20392;-69
2022/09/24 02:27:20;;;;;;;3.83;2.60;;;;;;;13.72;44.69;101492.47;5059129;28;20406;-69
2022/09/24 02:29:46;;;;;;;3.75;2.45;;;;;;;13.71;44.72;101492.63;5060724;28;20778;-68
2022/09/24 02:34:43;;;;;;;2.75;2.42;;;;;;;13.68;44.37;101498.31;5087658;27;20480;-69
2022/09/24 02:37:42;;;;;;;3.15;2.63;;;;;;;13.63;44.66;101496.16;5051250;28;20406;-68
2022/09/24 02:40:10;;;;;;;2.60;2.40;;;;;;;13.65;44.48;101503.97;5043758;28;20418;-68
2022/09/24 02:42:36;;;;;;;2.95;2.42;;;;;;;13.64;44.48;101503.13;5016693;28;20453;-68
2022/09/24 02:48:22;;;;;;;2.75;2.45;;;;;;;13.66;44.83;101497.66;5055564;27;20405;-69
2022/09/24 02:50:47;;;;;;;2.55;2.35;;;;;;;13.67;44.91;101500.16;5052851;28;20403;-69
2022/09/24 02:53:12;;;;;;;2.90;2.70;;;;;;;13.65;44.81;101498.63;5066343;28;20403;-69
2022/09/24 02:55:38;;;;;;;4.57;3.00;;;;;;;13.66;44.72;101503.78;5065942;28;20450;-69
2022/09/24 02:58:03;;;;;;;5.40;2.93;;;;;;;13.72;44.79;101511.13;5063613;28;20422;-68
2022/09/24 03:00:29;;;;;;;3.33;2.50;;;;;;;13.74;44.42;101508.28;5058495;28;20898;-69
2022/09/24 03:02:54;;;;;;;3.00;2.70;;;;;;;13.72;44.72;101510.28;5063358;28;20391;-69
2022/09/24 03:05:20;;;;;;;2.60;2.40;;;;;;;13.69;44.70;101513.28;5046714;28;20923;-69
2022/09/24 03:07:46;;;;;;;2.83;2.47;;;;;;;13.70;44.78;101509.63;5060060;28;20412;-69
2022/09/24 03:10:12;;;;;;;2.60;2.30;;;;;;;13.70;44.48;101512.28;5060016;28;20927;-69
2022/09/24 03:12:38;;;;;;;3.17;2.60;;;;;;;13.71;44.65;101519.28;5058590;28;20395;-67
2022/09/24 03:15:04;;;;;;;5.05;2.47;;;;;;;13.66;44.72;101505.63;5064218;28;20428;-68
2022/09/24 03:17:29;;;;;;;2.75;2.50;;;;;;;13.67;44.93;101509.97;5061618;28;20426;-68
2022/09/24 03:21:52;;;;;;;2.83;2.20;;;;;;;13.64;44.98;101515.63;5041515;28;20826;-69
2022/09/24 03:26:23;;;;;;;3.13;2.70;;;;;;;13.58;45.19;101525.97;5084431;27;20412;-68
2022/09/24 03:28:48;;;;;;;4.10;2.90;;;;;;;13.55;44.84;101512.97;5086104;28;20448;-70
2022/09/24 03:31:14;;;;;;;7.43;2.90;;;;;;;13.50;44.97;101507.31;5084360;28;20398;-69
2022/09/24 03:33:45;;;;;;;5.35;2.70;;;;;;;13.49;45.19;101516.34;5075807;28;20400;-69
2022/09/24 03:37:57;;;;;;;3.50;3.00;;;;;;;13.42;45.33;101514.53;5084195;27;20473;-68
2022/09/24 03:43:05;;;;;;;3.25;2.63;;;;;;;13.32;45.42;101525.34;5086739;27;20406;-68
2022/09/24 03:45:30;;;;;;;3.58;2.90;;;;;;;13.26;45.63;101521.50;5075697;28;20974;-69
2022/09/24 03:47:56;;;;;;;2.80;2.50;;;;;;;13.17;45.75;101523.31;5071714;28;20392;-68
2022/09/24 03:50:21;;;;;;;3.40;2.70;;;;;;;13.12;45.84;101527.50;5075912;28;20413;-69
2022/09/24 03:54:46;;;;;;;4.20;2.60;;;;;;;12.93;46.08;101537.47;5032865;28;20411;-68
2022/09/24 03:57:13;;;;;;;6.45;3.13;;;;;;;12.90;46.18;101536.97;5026679;28;20465;-68
2022/09/24 03:59:40;;;;;;;4.18;2.88;;;;;;;12.82;46.33;101535.97;5026194;28;20826;-69
2022/09/24 04:02:07;;;;;;;3.38;2.90;;;;;;;12.78;46.15;101533.78;5026519;28;20482;-68
2022/09/24 04:04:32;;;;;;;4.75;2.67;;;;;;;12.71;46.29;101532.78;5025933;28;20410;-69
2022/09/24 04:06:58;;;;;;;5.00;2.80;;;;;;;12.66;46.36;101535.94;5058594;28;20395;-68
2022/09/24 04:09:23;;;;;;;4.87;3.10;;;;;;;12.56;46.68;101537.91;5026699;28;20420;-69
2022/09/24 04:11:51;;;;;;;3.85;3.00;;;;;;;12.54;46.98;101542.56;5025015;28;20465;-69
2022/09/24 04:14:16;;;;;;;3.22;2.83;;;;;;;12.49;46.66;101534.22;5026040;28;20419;-69
2022/09/24 04:16:42;;;;;;;3.73;3.17;;;;;;;12.48;46.80;101551.16;5026125;28;20399;-69
2022/09/24 04:19:07;;;;;;;5.10;3.50;;;;;;;12.44;46.71;101548.00;5026399;28;20395;-69
2022/09/24 04:21:33;;;;;;;4.30;3.23;;;;;;;12.37;46.92;101547.84;5025936;28;20396;-69
2022/09/24 04:23:59;;;;;;;5.65;3.40;;;;;;;12.36;47.13;101548.00;5021610;28;20404;-68
2022/09/24 04:26:24;;;;;;;7.37;3.50;;;;;;;12.37;47.15;101552.28;5011511;28;20393;-69
2022/09/24 04:28:50;;;;;;;3.70;3.10;;;;;;;12.36;47.10;101553.31;5025899;28;20387;-69
2022/09/24 04:31:15;;;;;;;4.10;3.20;;;;;;;12.40;46.95;101552.81;5026151;28;20399;-69
2022/09/24 04:33:41;;;;;;;4.87;3.27;;;;;;;12.43;46.89;101551.66;5025861;28;20470;-68
2022/09/24 04:36:06;;;;;;;4.72;3.13;;;;;;;12.45;46.85;101557.66;5026212;28;20396;-69
2022/09/24 04:40:18;;;;;;;5.00;3.50;;;;;;;12.56;46.56;101544.03;5066614;28;20917;-69
2022/09/24 04:44:24;;;;;;;4.93;3.42;;;;;;;12.75;46.31;101544.78;5079137;27;20404;-69
2022/09/24 04:46:49;;;;;;;5.90;3.60;;;;;;;12.94;46.03;101544.44;5075590;28;22047;-69
2022/09/24 04:49:15;;;;;;;6.30;3.70;;;;;;;13.12;45.70;101540.78;5080562;28;20391;-69
2022/09/24 04:51:40;;;;;;;5.90;3.50;;;;;;;13.32;45.34;101547.47;5078424;28;20451;-69
2022/09/24 04:54:06;;;;;;;3.90;3.10;;;;;;;13.36;44.87;101542.63;5083511;28;20441;-69
2022/09/24 04:56:31;;;;;;;4.97;4.10;;;;;;;13.44;44.90;101552.47;5078267;28;20441;-69
2022/09/24 05:00:46;;;;;;;8.85;3.78;;;;;;;13.67;44.70;101552.59;5083758;27;20397;-69
2022/09/24 05:03:12;;;;;;;6.38;3.83;;;;;;;13.89;44.27;101559.03;5081537;28;20404;-69
2022/09/24 05:05:37;;;;;;;5.27;4.13;;;;;;;13.94;44.06;101554.84;5077288;28;20425;-69
2022/09/24 05:08:03;;;;;;;6.25;4.20;;;;;;;14.02;44.11;101556.66;5081221;28;20391;-69
2022/09/24 05:10:31;;;;;;;7.07;4.70;;;;;;;13.96;43.81;101554.69;5076751;28;20411;-68
2022/09/24 05:12:58;;;;;;;7.60;4.25;;;;;;;14.13;43.61;101553.63;5074902;28;20783;-69
2022/09/24 05:15:23;;;;;;;7.53;5.28;;;;;;;14.36;43.47;101555.53;5074935;28;20911;-69
2022/09/24 05:17:48;;;;;;;10.48;5.82;;;;;;;14.51;42.91;101547.59;5073026;28;20480;-70
2022/09/24 05:20:15;;;;;;;7.93;6.13;;;;;;;14.71;42.38;101550.69;5079539;28;20423;-69
2022/09/24 05:22:45;;;;;;;11.32;6.10;;;;;;;15.06;42.05;101548.44;5076884;28;20408;-70
2022/09/24 05:25:13;;;;;;;8.88;6.22;;;;;;;15.45;41.25;101552.78;5082279;28;20488;-70
2022/09/24 05:27:47;;;;;;;10.07;6.20;;;;;;;15.78;40.60;101550.63;5066935;28;20431;-69
2022/09/24 05:30:13;;;;;;;14.00;6.47;;;;;;;16.05;39.98;101549.16;5077617;28;20778;-69
2022/09/24 05:32:39;;;;;;;7.70;6.18;;;;;;;16.29;39.45;101554.38;5080758;28;20895;-69
2022/09/24 05:35:07;;;;;;;9.18;6.00;;;;;;;16.42;39.06;101552.72;5075524;28;20402;-69
2022/09/24 05:37:33;;;;;;;8.63;5.38;;;;;;;16.60;39.03;101554.13;5074424;28;20386;-70
2022/09/24 05:40:46;;;;;;;6.70;4.63;;;;;;;16.80;38.30;101551.69;5086029;28;20465;-70
2022/09/24 05:42:45;;;;;;;6.70;4.00;;;;;;;17.11;37.77;101551.38;5085865;28;20398;-70
2022/09/24 05:45:11;;;;;;;4.50;3.22;;;;;;;17.24;37.37;101547.16;5077384;28;20756;-69
2022/09/24 05:47:36;;;;;;;5.35;4.03;;;;;;;17.47;36.93;101557.66;5085760;28;20904;-69
2022/09/24 05:50:02;;;;;;;5.77;3.80;;;;;;;17.85;36.37;101563.50;5085948;28;20397;-69
2022/09/24 05:52:27;;;;;;;8.15;4.03;;;;;;;18.19;35.88;101556.44;5083865;28;20469;-69
2022/09/24 05:54:53;;;;;;;5.90;3.90;;;;;;;18.49;35.31;101565.03;5085831;28;20390;-69
2022/09/24 05:59:26;;;;;;;3.90;3.50;;;;;;;18.82;34.61;101567.00;5069315;27;20476;-69
2022/09/24 06:01:53;;;;;;;5.10;3.43;;;;;;;19.09;34.17;101569.72;5059263;28;20408;-69
2022/09/24 06:04:18;;;;;;;7.45;3.78;;;;;;;19.41;33.97;101560.00;5048017;28;20447;-69
2022/09/24 06:06:44;;;;;;;4.87;3.40;;;;;;;19.74;33.34;101569.91;5054728;28;20401;-69
2022/09/24 06:09:09;;;;;;;10.27;3.97;;;;;;;19.91;32.96;101570.28;5056305;28;20402;-69
2022/09/24 06:11:35;;;;;;;4.20;3.80;;;;;;;20.02;32.95;101569.66;5049323;28;20463;-69
2022/09/24 06:14:04;;;;;;;7.23;3.77;;;;;;;20.29;32.71;101574.09;5052224;28;20394;-69
2022/09/24 06:16:33;;;;;;;4.65;2.85;;;;;;;20.73;31.98;101565.19;5046124;28;20463;-69
2022/09/24 06:18:58;;;;;;;3.97;3.00;;;;;;;21.23;31.22;101561.75;5060258;28;20915;-69
2022/09/24 06:21:24;;;;;;;3.78;2.58;;;;;;;21.96;30.13;101565.59;5048436;28;20397;-69
2022/09/24 06:23:49;;;;;;;3.43;2.50;;;;;;;22.83;29.01;101573.44;5048201;28;20467;-69
2022/09/24 06:26:15;;;;;;;3.83;2.58;;;;;;;23.83;27.61;101565.56;5059303;28;20396;-68
2022/09/24 06:28:41;;;;;;;3.07;2.57;;;;;;;24.55;26.50;101565.13;5055000;28;20896;-69
2022/09/24 06:31:08;;;;;;;4.13;2.13;;;;;;;24.97;25.57;101567.53;5061672;28;20427;-69
2022/09/24 06:33:34;;;;;;;4.50;2.13;;;;;;;25.49;25.04;101566.44;5049338;28;20944;-69
2022/09/24 06:36:01;;;;;;;2.90;2.17;;;;;;;26.40;24.29;101562.44;5028702;28;20486;-69
2022/09/24 06:38:27;;;;;;;3.35;2.40;;;;;;;26.93;23.47;101556.44;5026470;28;20418;-69
2022/09/24 06:40:58;;;;;;;2.37;2.07;;;;;;;27.49;23.04;101556.88;5040756;28;20381;-69
2022/09/24 06:43:24;;;;;;;4.83;2.27;;;;;;;28.55;21.67;101562.25;5042092;28;20436;-68
2022/09/24 06:45:49;;;;;;;2.33;2.13;;;;;;;28.75;21.29;101558.72;5045452;28;20408;-69
2022/09/24 06:48:15;;;;;;;2.93;2.00;;;;;;;28.60;21.45;101562.25;5041976;28;20926;-69
2022/09/24 06:50:42;;;;;;;2.20;1.97;;;;;;;28.06;22.07;101555.28;5044537;28;20398;-69
2022/09/24 06:53:09;;;;;;;4.07;1.98;;;;;;;26.77;23.22;101561.75;5051769;28;20393;-68
2022/09/24 06:55:36;;;;;;;2.10;1.90;;;;;;;25.54;25.09;101573.84;5045561;28;20382;-69
2022/09/24 06:58:07;;;;;;;3.17;2.33;;;;;;;24.71;26.38;101565.44;5063760;28;20424;-70
2022/09/24 07:00:34;;;;;;;4.10;2.10;;;;;;;24.14;27.23;101569.72;5065782;28;20383;-68
2022/09/24 07:03:00;;;;;;;2.72;2.10;;;;;;;23.76;27.79;101571.06;5065659;28;20380;-68
2022/09/24 07:09:31;;;;;;;2.88;2.10;;;;;;;22.97;29.18;101587.56;5085948;28;20776;-68
2022/09/24 07:12:03;;;;;;;2.43;2.03;;;;;;;22.59;29.60;101587.94;5073352;28;20860;-68
2022/09/24 07:14:29;;;;;;;2.97;2.00;;;;;;;22.78;29.75;101588.69;5072404;28;21000;-70
2022/09/24 07:16:54;;;;;;;2.60;2.15;;;;;;;22.90;29.56;101592.25;5084293;28;20402;-69
2022/09/24 07:19:20;;;;;;;4.20;2.20;;;;;;;22.94;29.63;101598.88;5067359;28;20960;-67
2022/09/24 07:21:45;;;;;;;3.97;2.27;;;;;;;22.85;30.18;101587.56;5056144;28;20392;-67
2022/09/24 07:24:10;;;;;;;3.40;2.50;;;;;;;22.62;30.75;101588.28;5062476;28;20376;-66
2022/09/24 07:26:36;;;;;;;2.65;2.30;;;;;;;22.57;30.55;101585.44;5060070;28;20411;-65
2022/09/24 07:29:03;;;;;;;4.53;2.13;;;;;;;22.57;30.95;101580.03;5072508;28;20435;-67
2022/09/24 07:31:28;;;;;;;3.35;2.25;;;;;;;22.36;30.37;101584.06;5069427;28;20376;-65
2022/09/24 07:33:54;;;;;;;4.57;2.50;;;;;;;22.31;30.75;101586.63;5065468;28;20782;-67
2022/09/24 07:36:19;;;;;;;2.63;2.43;;;;;;;22.37;30.89;101583.00;5077842;28;20378;-66
2022/09/24 07:42:24;;;;;;;2.40;2.20;;;;;;;22.25;31.82;101576.69;5096622;27;20402;-68
2022/09/24 07:44:50;;;;;;;2.88;2.20;;;;;;;22.09;31.73;101580.81;5075326;28;20422;-69
2022/09/24 07:48:21;;;;;;;3.38;2.35;;;;;;;22.23;32.06;101584.19;5089493;27;20522;-69
2022/09/24 07:50:46;;;;;;;7.87;2.93;;;;;;;22.23;32.44;101589.59;5068293;28;20885;-69
2022/09/24 07:53:12;;;;;;;2.78;2.30;;;;;;;22.10;32.58;101593.28;5067191;28;20479;-68
2022/09/24 07:55:39;;;;;;;40.07;3.80;;;;;;;21.96;32.26;101582.63;5066370;28;20809;-65
2022/09/24 07:58:07;;;;;;;31.92;3.83;;;;;;;21.92;32.41;101581.44;5066574;28;20821;-64
2022/09/24 08:00:33;;;;;;;5.25;2.63;;;;;;;22.03;32.49;101582.56;5066585;28;20384;-63
2022/09/24 08:03:02;;;;;;;4.63;2.80;;;;;;;22.08;32.06;101580.00;5066678;28;20383;-64
2022/09/24 08:05:27;;;;;;;2.60;2.30;;;;;;;22.23;31.88;101581.50;5066461;28;20395;-65
2022/09/24 08:07:54;;;;;;;11.35;2.63;;;;;;;22.30;32.06;101582.28;5066057;28;20412;-65
2022/09/24 08:10:20;;;;;;;5.90;2.80;;;;;;;22.36;32.10;101585.94;5068456;28;20483;-64
2022/09/24 08:12:46;;;;;;;7.53;2.58;;;;;;;22.40;32.17;101579.88;5083509;28;20489;-63
2022/09/24 08:15:11;;;;;;;3.70;2.17;;;;;;;22.42;31.58;101574.22;5081293;28;20461;-63
2022/09/24 08:17:37;;;;;;;3.63;2.33;;;;;;;22.43;31.75;101563.19;5083818;28;20386;-64
2022/09/24 08:20:03;;;;;;;2.60;2.13;;;;;;;22.49;30.54;101566.84;5080853;28;20418;-63
2022/09/24 08:22:28;;;;;;;4.00;2.53;;;;;;;22.53;30.94;101570.75;5065539;28;20982;-65
2022/09/24 08:24:56;;;;;;;5.10;2.87;;;;;;;22.70;30.33;101565.53;5066089;28;20376;-64
2022/09/24 08:27:22;;;;;;;3.08;2.20;;;;;;;22.86;28.79;101561.34;5065359;28;20412;-65
2022/09/24 08:29:48;;;;;;;3.55;2.20;;;;;;;23.05;28.26;101567.53;5066477;28;20889;-65
2022/09/24 08:32:14;;;;;;;3.80;2.50;;;;;;;23.18;27.88;101555.66;5065303;28;20380;-64
2022/09/24 08:34:39;;;;;;;3.43;2.10;;;;;;;23.39;27.42;101559.66;5065821;28;20438;-63
2022/09/24 08:37:08;;;;;;;3.50;2.55;;;;;;;23.50;27.38;101556.16;5065423;28;20392;-63
2022/09/24 08:39:34;;;;;;;3.50;2.20;;;;;;;23.57;26.92;101550.59;5063532;28;20812;-65
2022/09/24 08:42:13;;;;;;;3.58;2.47;;;;;;;23.70;27.14;101549.53;5064028;28;20898;-63
2022/09/24 08:47:47;;;;;;;3.58;2.22;;;;;;;23.75;26.44;101549.63;5063647;28;20470;-65
2022/09/24 08:50:25;;;;;;;3.33;2.10;;;;;;;23.72;26.58;101536.59;5084372;28;20863;-63
2022/09/24 08:53:13;;;;;;;4.50;2.20;;;;;;;23.79;26.16;101538.13;5083693;28;20451;-64
2022/09/24 08:55:45;;;;;;;3.92;2.70;;;;;;;23.84;26.24;101538.25;5085333;28;20378;-65
2022/09/24 08:58:19;;;;;;;2.60;1.98;;;;;;;23.82;26.00;101534.97;5060741;28;20388;-63
2022/09/24 09:00:57;;;;;;;3.20;1.92;;;;;;;23.70;26.11;101544.97;5052943;28;20376;-63
2022/09/24 09:03:38;;;;;;;2.30;2.10;;;;;;;23.69;25.99;101532.47;5040139;28;20381;-63
2022/09/24 09:06:18;;;;;;;2.80;1.88;;;;;;;23.64;26.15;101530.50;5055069;28;20401;-64
2022/09/24 09:08:50;;;;;;;2.20;2.00;;;;;;;23.61;26.24;101520.13;5059861;28;20387;-65
2022/09/24 09:11:19;;;;;;;4.07;1.90;;;;;;;23.61;26.46;101506.59;5057060;28;20381;-63
2022/09/24 09:16:28;;;;;;;2.20;1.80;;;;;;;23.87;26.14;101511.75;5090285;27;20410;-64
2022/09/24 09:19:02;;;;;;;4.35;2.00;;;;;;;23.94;26.02;101513.25;5068705;28;20410;-63
2022/09/24 09:21:42;;;;;;;3.07;2.13;;;;;;;23.93;25.91;101502.66;5086004;28;20891;-62
2022/09/24 09:24:39;;;;;;;3.50;1.80;;;;;;;23.76;25.96;101499.88;5078652;28;20376;-63
2022/09/24 09:27:14;;;;;;;2.75;1.80;;;;;;;23.83;25.67;101498.69;5072994;28;20422;-63
2022/09/24 09:29:47;;;;;;;3.50;2.07;;;;;;;23.95;26.11;101500.53;5084517;28;20963;-65
2022/09/24 09:32:21;;;;;;;1.73;1.63;;;;;;;23.97;25.58;101496.53;5086029;28;20467;-63
2022/09/24 09:34:59;;;;;;;2.75;2.13;;;;;;;23.99;25.60;101505.25;5084529;28;20489;-66
2022/09/24 09:37:33;;;;;;;3.10;1.83;;;;;;;24.04;25.22;101504.53;5077743;28;20493;-64
2022/09/24 09:39:58;;;;;;;2.03;1.63;;;;;;;24.05;25.14;101498.84;5073615;28;20402;-64
2022/09/24 09:42:39;;;;;;;2.27;1.70;;;;;;;24.06;25.19;101497.00;5066793;28;20892;-64
2022/09/24 09:45:31;;;;;;;6.90;3.35;;;;;;;24.13;25.42;101496.81;5075058;28;21148;-64
2022/09/24 09:47:57;;;;;;;2.75;1.95;;;;;;;24.11;25.43;101490.81;5072202;28;20410;-64
2022/09/24 09:50:43;;;;;;;3.33;1.65;;;;;;;24.00;25.25;101495.22;5072655;28;20440;-63
2022/09/24 09:53:25;;;;;;;4.80;1.80;;;;;;;24.08;25.47;101488.63;5067129;28;20417;-64
2022/09/24 09:55:56;;;;;;;3.47;2.23;;;;;;;24.17;25.30;101495.28;5074722;28;20428;-64
2022/09/24 09:58:24;;;;;;;3.30;2.28;;;;;;;24.19;24.80;101491.28;5069434;28;20499;-65
2022/09/24 10:00:51;;;;;;;2.35;1.85;;;;;;;24.23;24.59;101497.84;5079468;28;20470;-64
2022/09/24 10:03:29;;;;;;;2.60;1.60;;;;;;;24.31;24.50;101495.81;5084127;28;20461;-64
2022/09/24 10:06:04;;;;;;;1.50;1.40;;;;;;;24.31;24.32;101483.09;5085845;28;20388;-64
2022/09/24 10:08:29;;;;;;;2.90;1.98;;;;;;;24.28;23.91;101489.00;5086073;28;20389;-64
2022/09/24 10:10:57;;;;;;;2.00;1.60;;;;;;;24.29;23.05;101492.53;5086151;28;20387;-65
2022/09/24 10:13:24;;;;;;;2.92;1.60;;;;;;;24.27;23.51;101491.94;5080894;28;20383;-66
2022/09/24 10:15:55;;;;;;;1.87;1.70;;;;;;;24.32;23.45;101495.56;5076493;28;20864;-64
2022/09/24 10:18:41;;;;;;;1.52;1.40;;;;;;;24.36;23.20;101485.91;5071419;28;20391;-64
2022/09/24 10:21:13;;;;;;;1.80;1.55;;;;;;;24.32;23.09;101478.50;5073133;28;20807;-65
2022/09/24 10:23:47;;;;;;;2.45;1.40;;;;;;;24.32;23.48;101482.03;5078999;28;20916;-65
2022/09/24 10:26:13;;;;;;;5.80;1.65;;;;;;;24.33;23.65;101483.69;5071874;28;20383;-64
2022/09/24 10:31:35;;;;;;;2.78;1.70;;;;;;;24.33;23.25;101477.44;5072365;28;20390;-64
2022/09/24 10:34:01;;;;;;;3.65;1.80;;;;;;;24.35;23.40;101470.69;5072297;28;20917;-64
2022/09/24 10:36:29;;;;;;;2.50;1.45;;;;;;;24.43;23.24;101473.03;5072647;28;20439;-65
2022/09/24 10:39:06;;;;;;;3.20;1.65;;;;;;;24.38;23.05;101464.81;5071562;28;20474;-64
2022/09/24 10:41:32;;;;;;;1.90;1.43;;;;;;;24.36;22.91;101466.94;5071883;28;20418;-64
2022/09/24 10:44:03;;;;;;;2.60;1.50;;;;;;;24.38;22.55;101466.66;5062749;28;20444;-64
2022/09/24 10:46:43;;;;;;;1.98;1.70;;;;;;;24.37;22.89;101465.03;4967103;28;20456;-65
2022/09/24 10:49:34;;;;;;;2.30;1.47;;;;;;;24.37;23.05;101463.16;5031074;28;20398;-64
2022/09/24 10:52:25;;;;;;;3.30;1.60;;;;;;;24.37;23.26;101463.16;5021375;28;20392;-65
2022/09/24 10:55:03;;;;;;;3.13;1.52;;;;;;;24.33;22.71;101453.88;5011493;28;20421;-65
2022/09/24 10:58:01;;;;;;;3.20;1.40;;;;;;;24.35;22.90;101453.63;5014948;28;20404;-65
2022/09/24 11:00:47;;;;;;;2.80;1.55;;;;;;;24.37;22.82;101455.00;5005206;28;20411;-64
2022/09/24 11:03:23;;;;;;;2.60;1.60;;;;;;;24.45;22.69;101447.56;5010985;28;20434;-65
2022/09/24 11:05:55;;;;;;;2.55;1.50;;;;;;;24.49;22.51;101443.28;4999879;28;20397;-64
2022/09/24 11:08:31;;;;;;;3.78;1.60;;;;;;;24.52;22.38;101448.22;5014913;28;20393;-64
2022/09/24 11:11:08;;;;;;;3.30;1.50;;;;;;;24.54;22.36;101440.69;5017720;28;20392;-64
2022/09/24 11:14:15;;;;;;;3.97;1.48;;;;;;;24.53;21.87;101436.34;5007563;28;20464;-65
2022/09/24 11:17:06;;;;;;;4.20;1.50;;;;;;;24.52;22.38;101435.47;5008451;28;20514;-64
2022/09/24 11:20:02;;;;;;;4.00;1.40;;;;;;;24.44;22.16;101430.47;5007438;28;20415;-64
2022/09/24 11:22:28;;;;;;;1.60;1.40;;;;;;;24.45;22.17;101429.41;5016168;28;20400;-65
2022/09/24 11:25:15;;;;;;;2.38;1.25;;;;;;;24.16;21.59;101420.50;5009808;28;20384;-64
2022/09/24 11:27:58;;;;;;;2.30;1.40;;;;;;;24.10;22.37;101422.31;5015335;28;20378;-65
2022/09/24 11:31:10;;;;;;;1.60;1.35;;;;;;;24.19;22.33;101412.72;5020418;28;20388;-64
2022/09/24 11:33:41;;;;;;;2.40;1.50;;;;;;;24.22;22.63;101409.53;4997472;28;20404;-65
2022/09/24 11:36:14;;;;;;;2.03;1.33;;;;;;;24.24;22.13;101420.13;5011141;28;20438;-66
2022/09/24 11:39:24;;;;;;;4.18;1.50;;;;;;;24.19;22.57;101411.91;5020379;28;20403;-64
2022/09/24 11:41:57;;;;;;;2.53;1.48;;;;;;;24.24;22.67;101420.94;5000096;28;20405;-65
2022/09/24 11:47:16;;;;;;;1.52;1.30;;;;;;;24.20;22.33;101408.09;5083526;27;20460;-64
2022/09/24 11:50:00;;;;;;;2.28;1.33;;;;;;;24.21;22.52;101407.88;5059548;28;20414;-65
2022/09/24 11:52:38;;;;;;;2.42;1.40;;;;;;;24.26;22.14;101401.72;5063310;28;20471;-64
2022/09/24 11:55:14;;;;;;;2.65;1.48;;;;;;;24.24;22.29;101401.16;5066157;28;20392;-64
2022/09/24 11:57:47;;;;;;;2.00;1.30;;;;;;;24.24;22.35;101388.41;5065154;28;20406;-65
2022/09/24 12:00:16;;;;;;;2.03;1.40;;;;;;;24.14;22.30;101396.34;5066535;28;20380;-64
2022/09/24 12:03:15;;;;;;;4.07;1.40;;;;;;;23.94;22.15;101394.09;5066188;28;20410;-64
2022/09/24 12:05:51;;;;;;;1.98;1.40;;;;;;;24.00;22.41;101392.31;5066293;28;20412;-64
2022/09/24 12:08:26;;;;;;;1.70;1.40;;;;;;;24.05;23.13;101385.09;5066131;28;20384;-64
2022/09/24 12:10:51;;;;;;;2.93;1.60;;;;;;;24.14;23.11;101385.53;5064887;28;20400;-64
2022/09/24 12:13:24;;;;;;;1.80;1.50;;;;;;;24.17;23.27;101384.22;5064578;28;20400;-64
2022/09/24 12:15:51;;;;;;;2.65;1.40;;;;;;;24.20;22.76;101383.72;5066562;28;20431;-63
2022/09/24 12:20:01;;;;;;;1.70;1.60;;;;;;;24.26;22.74;101390.88;5084566;27;20404;-64
2022/09/24 12:22:30;;;;;;;3.60;2.00;;;;;;;24.28;22.71;101391.47;5071444;28;20812;-64
2022/09/24 12:24:59;;;;;;;3.13;1.70;;;;;;;24.33;23.09;101393.44;5076294;28;20962;-65
2022/09/24 12:27:34;;;;;;;2.55;1.50;;;;;;;24.35;23.03;101389.41;5070647;28;20830;-64
2022/09/24 12:34:19;;;;;;;1.80;1.60;;;;;;;24.34;22.66;101376.91;5065261;28;20825;-64
2022/09/24 12:36:49;;;;;;;2.93;1.67;;;;;;;24.37;23.12;101367.50;5024542;28;20380;-65
2022/09/24 12:39:17;;;;;;;2.73;1.70;;;;;;;24.42;23.50;101373.81;5065876;28;20391;-65
2022/09/24 12:42:01;;;;;;;3.27;1.57;;;;;;;24.37;22.83;101370.19;5065876;28;20937;-64
2022/09/24 12:44:38;;;;;;;3.90;1.75;;;;;;;24.18;22.56;101373.16;5064801;28;20395;-65
2022/09/24 12:47:13;;;;;;;2.70;1.80;;;;;;;24.19;22.81;101373.97;5065770;28;20375;-64
2022/09/24 12:49:39;;;;;;;2.67;1.70;;;;;;;24.30;23.24;101364.94;5065512;28;20533;-65
2022/09/24 12:52:24;;;;;;;3.33;1.73;;;;;;;24.27;23.01;101360.00;5062099;28;20420;-64
2022/09/24 12:54:57;;;;;;;3.10;1.87;;;;;;;24.25;23.52;101354.00;5063338;28;20400;-64